Time;durP1;ratioP1;P1;durP2;ratioP2;P2;SDS_P1;SDS_P2;PMS_P1;PMS_P2;Temp;Humidity;BMP_temperature;BMP_pressure;BME280_temperature;BME280_humidity;BME280_pressure;Samples;Min_cycle;Max_cycle;Signal;HPM_P1;HPM_P2
2023/05/31 00:00:04;;;;;;;7.20;6.50;;;;;;;-144.30;100.00;85372.56;5133317;27;20198;-56
2023/05/31 00:02:33;;;;;;;7.72;7.00;;;;;;;-144.30;100.00;85340.78;5133399;27;20194;-59
2023/05/31 00:05:00;;;;;;;7.40;6.70;;;;;;;-144.30;100.00;85346.72;5133417;27;20208;-56
2023/05/31 00:07:26;;;;;;;8.35;6.75;;;;;;;-144.30;100.00;85352.69;5133500;27;20651;-56
2023/05/31 00:09:53;;;;;;;8.55;7.20;;;;;;;-144.30;100.00;85374.56;5133361;27;20577;-59
2023/05/31 00:12:20;;;;;;;8.18;6.60;;;;;;;-144.30;100.00;85366.63;5133323;27;20201;-56
2023/05/31 00:14:47;;;;;;;7.90;6.50;;;;;;;-144.30;100.00;85388.47;5133156;27;20293;-55
2023/05/31 00:17:14;;;;;;;8.13;6.95;;;;;;;-144.30;100.00;85396.44;5133236;27;20669;-58
2023/05/31 00:19:43;;;;;;;7.07;6.38;;;;;;;-144.30;100.00;85364.63;5133114;27;20310;-58
2023/05/31 00:22:10;;;;;;;6.47;6.00;;;;;;;-144.30;100.00;85299.03;5133080;27;20200;-59
2023/05/31 00:24:38;;;;;;;6.15;5.72;;;;;;;-144.30;100.00;85320.91;5133072;27;20254;-59
2023/05/31 00:27:05;;;;;;;6.25;5.75;;;;;;;-144.30;100.00;85372.56;5133317;27;20344;-59
2023/05/31 00:29:32;;;;;;;6.70;6.10;;;;;;;-144.30;100.00;85362.63;5133052;27;20646;-58
2023/05/31 00:31:59;;;;;;;6.47;5.75;;;;;;;-144.30;100.00;85378.53;5133047;27;20236;-56
2023/05/31 00:34:26;;;;;;;5.65;5.15;;;;;;;-144.30;100.00;85328.84;5131917;27;20194;-56
2023/05/31 00:36:54;;;;;;;7.68;6.45;;;;;;;-144.30;100.00;85283.13;5132951;27;20701;-55
2023/05/31 00:39:21;;;;;;;7.28;6.55;;;;;;;-144.30;100.00;85378.53;5132721;27;20193;-55
2023/05/31 00:41:48;;;;;;;6.88;6.28;;;;;;;-144.30;100.00;85388.47;5132378;27;20876;-56
2023/05/31 00:44:15;;;;;;;6.53;5.97;;;;;;;-144.30;100.00;85374.56;5132876;27;20584;-57
2023/05/31 00:46:42;;;;;;;6.15;5.75;;;;;;;-144.30;100.00;85364.63;5132183;27;20225;-55
2023/05/31 00:49:09;;;;;;;7.55;6.80;;;;;;;-144.30;100.00;85400.41;5132481;27;20190;-56
2023/05/31 00:51:37;;;;;;;7.03;6.43;;;;;;;-144.30;100.00;85360.66;5132745;27;20218;-56
2023/05/31 00:54:07;;;;;;;7.53;6.80;;;;;;;-144.30;100.00;85368.59;5132951;27;20205;-57
2023/05/31 00:56:34;;;;;;;9.05;7.03;;;;;;;-144.30;100.00;85376.56;5132358;27;20194;-56
2023/05/31 00:59:01;;;;;;;8.90;7.10;;;;;;;-144.30;100.00;85360.66;5132769;27;20576;-56
2023/05/31 01:01:33;;;;;;;7.35;6.70;;;;;;;-144.30;100.00;85358.66;5132656;27;20701;-55
2023/05/31 01:04:01;;;;;;;7.60;6.90;;;;;;;-144.30;100.00;85412.34;5132358;27;20198;-59
2023/05/31 01:06:31;;;;;;;6.00;5.50;;;;;;;-144.30;100.00;85434.22;5132177;27;20243;-55
2023/05/31 01:09:01;;;;;;;6.85;6.18;;;;;;;-144.30;100.00;85410.34;5132614;27;20231;-55
2023/05/31 01:11:42;;;;;;;6.75;6.10;;;;;;;-144.30;100.00;85424.25;5132385;27;20656;-55
2023/05/31 01:14:18;;;;;;;7.32;6.75;;;;;;;-144.30;100.00;85404.38;5132219;27;20198;-55
2023/05/31 01:16:52;;;;;;;8.33;6.43;;;;;;;-144.30;100.00;85448.13;5132056;27;20231;-55
2023/05/31 01:19:38;;;;;;;6.75;6.25;;;;;;;-144.30;100.00;85589.28;5131567;27;20194;-55
2023/05/31 01:22:20;;;;;;;6.80;6.00;;;;;;;-144.30;100.00;85434.22;5132249;27;20720;-56
2023/05/31 01:24:57;;;;;;;9.35;5.88;;;;;;;-144.30;100.00;85446.13;5131939;27;20194;-55
2023/05/31 01:27:27;;;;;;;6.80;6.28;;;;;;;-144.30;100.00;85471.97;5131912;27;20201;-57
2023/05/31 01:29:55;;;;;;;10.32;7.55;;;;;;;-144.30;100.00;85432.22;5132017;27;20313;-56
2023/05/31 01:32:24;;;;;;;7.85;7.13;;;;;;;-144.30;100.00;85424.25;5131864;27;20218;-56
2023/05/31 01:34:51;;;;;;;8.23;7.40;;;;;;;-144.30;100.00;85440.16;5131802;27;20190;-56
2023/05/31 01:37:18;;;;;;;7.53;6.82;;;;;;;-144.30;100.00;85452.09;5131649;27;20502;-59
2023/05/31 01:39:46;;;;;;;8.00;7.28;;;;;;;-144.30;100.00;85444.16;5131432;27;20231;-59
2023/05/31 01:42:14;;;;;;;8.88;7.88;;;;;;;-144.30;100.00;85434.22;5131894;27;20197;-59
2023/05/31 01:44:43;;;;;;;8.23;7.43;;;;;;;-144.30;100.00;85464.03;5131327;27;20200;-58
2023/05/31 01:47:11;;;;;;;8.40;7.60;;;;;;;-144.30;100.00;85440.16;5131389;27;20718;-58
2023/05/31 01:49:39;;;;;;;8.18;7.30;;;;;;;-144.30;100.00;85462.03;5131521;27;20198;-58
2023/05/31 01:52:08;;;;;;;8.43;7.80;;;;;;;-144.30;100.00;85485.88;5131332;27;20225;-59
2023/05/31 01:54:35;;;;;;;10.07;6.85;;;;;;;-144.30;100.00;85466.00;5131290;27;20194;-58
2023/05/31 01:57:05;;;;;;;8.05;7.35;;;;;;;-144.30;100.00;85460.03;5131707;27;20346;-58
2023/05/31 01:59:33;;;;;;;8.57;7.78;;;;;;;-144.30;100.00;85471.97;5131394;27;20285;-58
2023/05/31 02:02:03;;;;;;;10.65;8.60;;;;;;;-144.30;100.00;85448.13;5131311;27;20194;-59
2023/05/31 02:04:30;;;;;;;9.73;8.73;;;;;;;-144.30;100.00;85454.09;5131202;27;20197;-58
2023/05/31 02:06:57;;;;;;;12.13;10.38;;;;;;;-144.30;100.00;85438.19;5131120;27;20740;-59
2023/05/31 02:09:25;;;;;;;12.38;9.50;;;;;;;-144.30;100.00;85396.44;5130833;27;20710;-58
2023/05/31 02:11:51;;;;;;;11.60;9.20;;;;;;;-144.30;100.00;85487.88;5130965;27;20217;-58
2023/05/31 02:14:18;;;;;;;14.00;10.18;;;;;;;-144.30;100.00;85464.03;5130960;27;20198;-59
2023/05/31 02:16:45;;;;;;;13.57;9.85;;;;;;;-144.30;100.00;85432.22;5130866;27;20281;-55
2023/05/31 02:19:14;;;;;;;12.25;9.25;;;;;;;-144.30;100.00;85483.91;5131126;27;20198;-56
2023/05/31 02:21:41;;;;;;;11.05;9.93;;;;;;;-144.30;100.00;85448.13;5130893;27;20202;-59
2023/05/31 02:24:08;;;;;;;9.68;8.73;;;;;;;-144.30;100.00;85485.88;5131044;27;20200;-59
2023/05/31 02:26:35;;;;;;;12.30;9.70;;;;;;;-144.30;100.00;85460.03;5131032;27;20197;-58
2023/05/31 02:29:03;;;;;;;11.43;9.82;;;;;;;-144.30;100.00;85428.25;5130890;27;20255;-59
2023/05/31 02:31:29;;;;;;;9.50;8.50;;;;;;;-144.30;100.00;85468.00;5130834;27;20257;-56
2023/05/31 02:33:56;;;;;;;10.07;9.15;;;;;;;-144.30;100.00;85483.91;5130864;27;20194;-56
2023/05/31 02:36:29;;;;;;;14.70;9.77;;;;;;;-144.30;100.00;85434.22;5130812;27;20201;-56
2023/05/31 02:38:57;;;;;;;10.45;9.45;;;;;;;-144.30;100.00;85468.00;5130803;27;20190;-56
2023/05/31 02:41:23;;;;;;;10.50;9.45;;;;;;;-144.30;100.00;85460.03;5130759;27;20194;-56
2023/05/31 02:43:50;;;;;;;11.52;10.30;;;;;;;-144.30;100.00;85491.84;5130796;27;20283;-54
2023/05/31 02:46:17;;;;;;;10.52;9.52;;;;;;;-144.30;100.00;85460.03;5130846;28;20221;-58
2023/05/31 02:48:44;;;;;;;11.88;10.68;;;;;;;-144.30;100.00;85464.03;5130507;27;20216;-59
2023/05/31 02:51:11;;;;;;;10.67;9.63;;;;;;;-144.30;100.00;85471.97;5130851;28;20248;-59
2023/05/31 02:53:39;;;;;;;14.20;9.07;;;;;;;-144.30;100.00;85454.09;5130557;27;20219;-57
2023/05/31 02:56:08;;;;;;;13.38;9.15;;;;;;;-144.30;100.00;85483.91;5131088;27;20697;-59
2023/05/31 02:58:35;;;;;;;12.75;10.02;;;;;;;-144.30;100.00;85519.69;5134734;27;20727;-55
2023/05/31 03:01:02;;;;;;;9.93;8.85;;;;;;;-144.30;100.00;85489.88;5134449;27;20189;-56
2023/05/31 03:03:29;;;;;;;9.15;8.27;;;;;;;-144.30;100.00;85489.88;5134439;27;20243;-56
2023/05/31 03:05:56;;;;;;;11.13;9.15;;;;;;;-144.30;100.00;85485.88;5134992;27;20190;-61
2023/05/31 03:08:22;;;;;;;10.03;9.10;;;;;;;-144.30;100.00;85497.81;5134648;27;20201;-59
2023/05/31 03:10:56;;;;;;;13.07;9.00;;;;;;;-144.30;100.00;85450.09;5134911;27;20190;-60
2023/05/31 03:13:23;;;;;;;10.68;8.98;;;;;;;-144.30;100.00;85460.03;5134722;27;20201;-62
2023/05/31 03:15:50;;;;;;;12.70;9.32;;;;;;;-144.30;100.00;85481.91;5134352;27;20194;-59
2023/05/31 03:18:16;;;;;;;11.38;9.20;;;;;;;-144.30;100.00;85491.84;5134500;27;20198;-59
2023/05/31 03:20:43;;;;;;;13.23;8.18;;;;;;;-144.30;100.00;85471.97;5134295;27;20194;-59
2023/05/31 03:23:10;;;;;;;11.57;8.73;;;;;;;-144.30;100.00;85473.97;5134588;27;20194;-58
2023/05/31 03:25:37;;;;;;;16.17;9.55;;;;;;;-144.30;100.00;85468.00;5134644;27;20198;-56
2023/05/31 03:28:05;;;;;;;10.98;8.45;;;;;;;-144.30;100.00;85452.09;5133416;27;20186;-56
2023/05/31 03:30:32;;;;;;;10.13;9.20;;;;;;;-144.30;100.00;85436.19;5130133;27;20198;-57
2023/05/31 03:33:00;;;;;;;10.18;9.02;;;;;;;-144.30;100.00;85440.16;5130659;27;20595;-59
2023/05/31 03:35:27;;;;;;;13.77;9.52;;;;;;;-144.30;100.00;85448.13;5132617;27;20250;-59
2023/05/31 03:37:53;;;;;;;11.88;9.65;;;;;;;-144.30;100.00;85414.31;5133655;27;20200;-59
2023/05/31 03:40:21;;;;;;;12.98;10.27;;;;;;;-144.30;100.00;85432.22;5132876;27;20194;-56
2023/05/31 03:42:47;;;;;;;14.05;11.05;;;;;;;-144.30;100.00;85392.47;5131218;27;20901;-55
2023/05/31 03:45:16;;;;;;;12.32;10.02;;;;;;;-144.30;100.00;85412.34;5133942;27;20202;-56
2023/05/31 03:47:43;;;;;;;13.10;10.20;;;;;;;-144.30;100.00;85366.63;5133876;27;20233;-61
2023/05/31 03:50:11;;;;;;;15.27;10.30;;;;;;;-144.30;100.00;85372.56;5134143;27;20194;-58
2023/05/31 03:52:38;;;;;;;15.65;10.60;;;;;;;-144.30;100.00;85374.56;5134195;27;20305;-58
2023/05/31 03:55:06;;;;;;;12.07;10.77;;;;;;;-144.30;100.00;85374.56;5119469;27;20223;-59
2023/05/31 03:57:33;;;;;;;12.38;10.50;;;;;;;-144.30;100.00;85318.91;5111854;28;20222;-61
2023/05/31 04:00:00;;;;;;;16.13;10.90;;;;;;;-144.30;100.00;85384.50;5112986;27;20249;-63
2023/05/31 04:02:30;;;;;;;14.70;10.88;;;;;;;-144.30;99.74;85340.78;5112389;28;20692;-57
2023/05/31 04:04:57;;;;;;;14.50;10.55;;;;;;;-144.30;99.66;85217.53;5132514;27;20593;-63
2023/05/31 04:07:24;;;;;;;12.80;10.98;;;;;;;-144.30;97.85;85247.34;5132897;27;20697;-61
2023/05/31 04:09:53;;;;;;;13.70;10.00;;;;;;;-144.30;94.32;85863.63;5133617;27;20618;-61
2023/05/31 04:12:20;;;;;;;11.25;10.02;;;;;;;-144.30;92.18;85143.97;5132797;27;20308;-63
2023/05/31 04:14:47;;;;;;;16.23;9.85;;;;;;;-144.30;91.37;85128.06;5129526;27;20719;-61
2023/05/31 04:17:14;;;;;;;13.93;11.38;;;;;;;-144.30;92.26;85185.72;5131655;27;20202;-59
2023/05/31 04:19:43;;;;;;;10.65;9.15;;;;;;;-144.30;91.66;85143.97;5132103;27;20198;-60
2023/05/31 04:22:10;;;;;;;11.40;9.13;;;;;;;-144.30;91.66;85181.75;5128912;27;20715;-63
2023/05/31 04:24:36;;;;;;;10.48;9.20;;;;;;;-144.30;91.94;85191.69;5130278;27;20198;-62
2023/05/31 04:27:06;;;;;;;15.02;8.82;;;;;;;-144.30;92.04;85185.72;5132386;27;20189;-61
2023/05/31 04:29:33;;;;;;;10.23;9.05;;;;;;;-144.30;92.46;85157.88;5130221;27;20198;-57
2023/05/31 04:32:00;;;;;;;10.25;9.05;;;;;;;-144.30;91.67;85138.00;5132654;27;20766;-55
2023/05/31 04:34:28;;;;;;;13.85;8.40;;;;;;;-144.30;91.32;85163.84;5132410;27;20204;-58
2023/05/31 04:36:57;;;;;;;9.00;8.13;;;;;;;-144.30;90.70;85120.13;5132612;27;20281;-58
2023/05/31 04:39:24;;;;;;;11.45;9.38;;;;;;;-144.30;90.20;85537.59;5132804;27;20587;-55
2023/05/31 04:41:51;;;;;;;13.15;8.48;;;;;;;-144.30;89.77;85130.06;5132981;27;20212;-60
2023/05/31 04:44:18;;;;;;;9.40;8.50;;;;;;;-144.30;89.24;85102.22;5128544;27;20205;-64
2023/05/31 04:46:45;;;;;;;9.98;9.07;;;;;;;-144.30;89.89;85112.16;5128298;27;20224;-59
2023/05/31 04:49:12;;;;;;;10.65;9.45;;;;;;;-144.30;90.32;85112.16;5129534;27;20192;-60
2023/05/31 04:51:39;;;;;;;10.82;8.50;;;;;;;-144.30;90.32;85122.09;5132004;27;20194;-62
2023/05/31 04:54:08;;;;;;;9.73;8.80;;;;;;;-144.30;90.13;85118.13;5132003;27;20225;-61
2023/05/31 04:56:35;;;;;;;10.23;8.68;;;;;;;-144.30;89.80;85138.00;5129702;27;20193;-62
2023/05/31 04:59:02;;;;;;;13.55;8.88;;;;;;;-144.30;89.82;85064.47;5131506;27;20218;-62
2023/05/31 05:01:29;;;;;;;10.00;8.65;;;;;;;-144.30;89.42;85070.44;5132048;27;20194;-63
2023/05/31 05:03:56;;;;;;;20.48;8.45;;;;;;;-144.30;88.48;85050.53;5132440;27;20277;-62
2023/05/31 05:06:23;;;;;;;13.02;8.63;;;;;;;-144.30;87.67;85052.53;5131710;27;20213;-61
2023/05/31 05:08:50;;;;;;;10.57;8.77;;;;;;;-144.30;87.96;85016.75;5132552;27;20197;-61
2023/05/31 05:11:18;;;;;;;11.63;8.40;;;;;;;-144.30;89.13;85102.22;5132065;27;20205;-61
2023/05/31 05:13:45;;;;;;;11.82;8.85;;;;;;;-144.30;89.58;85149.94;5131976;27;20209;-62
2023/05/31 05:16:12;;;;;;;12.52;8.80;;;;;;;-144.30;89.79;85106.22;5132230;27;20190;-63
2023/05/31 05:18:39;;;;;;;13.88;8.85;;;;;;;-144.30;89.44;85102.22;5132024;27;20304;-63
2023/05/31 05:21:06;;;;;;;11.57;8.68;;;;;;;-144.30;89.49;85078.38;5131176;27;20202;-56
2023/05/31 05:23:34;;;;;;;12.32;8.50;;;;;;;-144.30;88.86;85112.16;5111232;28;20201;-54
2023/05/31 05:26:01;;;;;;;9.77;8.73;;;;;;;-144.30;89.08;85074.41;5111144;28;20290;-55
2023/05/31 05:28:30;;;;;;;9.93;8.55;;;;;;;-144.30;88.84;85082.34;5127583;27;20201;-54
2023/05/31 05:30:57;;;;;;;11.55;7.82;;;;;;;-144.30;88.26;85082.34;5131719;27;20197;-55
2023/05/31 05:33:23;;;;;;;8.85;8.05;;;;;;;-144.30;87.84;85062.47;5131517;27;20221;-55
2023/05/31 05:35:50;;;;;;;11.80;8.52;;;;;;;-144.30;87.33;85008.81;5131426;27;20587;-56
2023/05/31 05:38:17;;;;;;;12.82;8.73;;;;;;;-144.30;86.66;85036.63;5131773;27;20204;-55
2023/05/31 05:40:44;;;;;;;19.30;8.88;;;;;;;-144.30;86.37;85012.78;5131220;27;20205;-55
2023/05/31 05:43:11;;;;;;;10.05;8.48;;;;;;;-144.30;85.78;85000.84;5131710;27;20520;-55
2023/05/31 05:45:39;;;;;;;15.35;8.40;;;;;;;-144.30;85.42;85024.72;5131310;27;20194;-55
2023/05/31 05:48:06;;;;;;;13.30;8.25;;;;;;;-144.30;85.11;84979.00;5131466;27;20221;-59
2023/05/31 05:50:33;;;;;;;10.32;8.30;;;;;;;-144.30;85.23;84986.94;5131479;27;20575;-58
2023/05/31 05:53:00;;;;;;;15.07;7.55;;;;;;;-144.30;84.99;85000.84;5131253;27;20222;-59
2023/05/31 05:55:27;;;;;;;9.57;8.07;;;;;;;-144.30;84.63;84939.25;5131399;27;20205;-55
2023/05/31 05:57:55;;;;;;;9.82;7.85;;;;;;;-144.30;83.95;84941.22;5131249;27;20205;-54
2023/05/31 06:00:24;;;;;;;10.50;8.88;;;;;;;-144.30;83.69;84907.44;5131360;27;20197;-56
2023/05/31 06:02:52;;;;;;;14.95;8.57;;;;;;;-144.30;83.87;84816.00;5131212;27;20189;-58
2023/05/31 06:05:25;;;;;;;8.15;7.43;;;;;;;-144.30;83.28;84927.31;5131405;27;20200;-58
2023/05/31 06:07:52;;;;;;;10.52;8.00;;;;;;;-144.30;82.82;84887.56;5131361;27;20190;-60
2023/05/31 06:10:19;;;;;;;14.43;8.23;;;;;;;-144.30;82.46;84819.97;5131645;27;20790;-59
2023/05/31 06:12:45;;;;;;;12.00;8.00;;;;;;;-144.30;81.06;84808.06;5130891;27;20213;-60
2023/05/31 06:15:13;;;;;;;8.70;7.85;;;;;;;-144.30;80.36;84774.25;5131000;27;20674;-62
2023/05/31 06:17:41;;;;;;;11.15;7.93;;;;;;;-144.30;79.78;84788.19;5130945;27;20252;-60
2023/05/31 06:20:10;;;;;;;12.18;8.10;;;;;;;-144.30;79.29;84740.47;5130924;27;20267;-58
2023/05/31 06:22:37;;;;;;;9.57;7.18;;;;;;;-144.30;78.05;84692.78;5131261;27;20590;-59
2023/05/31 06:25:04;;;;;;;11.70;7.05;;;;;;;-144.30;76.63;84653.03;5130868;27;20208;-56
2023/05/31 06:27:31;;;;;;;11.18;7.63;;;;;;;-144.30;76.22;84635.13;5130775;28;20204;-55
2023/05/31 06:29:58;;;;;;;14.63;8.27;;;;;;;-144.30;76.29;84621.22;5130848;27;20216;-55
2023/05/31 06:32:26;;;;;;;8.95;6.88;;;;;;;-144.30;75.54;84553.66;5133276;27;20308;-55
2023/05/31 06:34:53;;;;;;;11.35;6.82;;;;;;;-144.30;74.86;84482.09;5135321;27;20198;-56
2023/05/31 06:37:22;;;;;;;8.20;7.40;;;;;;;-144.30;72.80;84466.19;5135392;27;20200;-59
2023/05/31 06:39:50;;;;;;;7.40;6.70;;;;;;;-144.30;71.91;84368.81;5135117;27;20239;-56
2023/05/31 06:42:17;;;;;;;10.90;6.72;;;;;;;-144.30;70.61;84358.88;5134843;27;20661;-56
2023/05/31 06:44:44;;;;;;;10.13;6.57;;;;;;;-144.30;70.95;84392.66;5135059;27;21343;-56
2023/05/31 06:47:11;;;;;;;9.60;7.30;;;;;;;-144.30;70.62;84438.38;5134658;27;20231;-55
2023/05/31 06:49:38;;;;;;;9.05;7.18;;;;;;;-144.30;70.82;84408.56;5134924;27;20197;-55
2023/05/31 06:52:05;;;;;;;9.65;8.75;;;;;;;-144.30;70.72;84380.75;5135173;27;20205;-55
2023/05/31 06:54:36;;;;;;;9.70;7.97;;;;;;;-144.30;70.82;84398.63;5134864;27;20190;-55
2023/05/31 06:57:03;;;;;;;7.55;6.93;;;;;;;-144.30;70.91;84366.84;5135061;27;20639;-53
2023/05/31 06:59:30;;;;;;;7.97;6.70;;;;;;;-144.30;70.54;84362.84;5135098;27;20220;-56
2023/05/31 07:01:56;;;;;;;7.63;6.32;;;;;;;-144.30;70.60;84386.72;5134696;27;20205;-55
2023/05/31 07:04:23;;;;;;;9.25;7.00;;;;;;;-144.30;69.72;84366.84;5135119;27;20196;-55
2023/05/31 07:06:51;;;;;;;10.50;6.85;;;;;;;-144.30;70.21;84390.69;5134671;27;20301;-55
2023/05/31 07:09:17;;;;;;;12.15;6.43;;;;;;;-144.30;69.51;84333.06;5134470;27;20212;-56
2023/05/31 07:11:46;;;;;;;9.75;6.60;;;;;;;-144.30;68.81;84390.69;5134913;27;20811;-54
2023/05/31 07:14:13;;;;;;;6.10;5.63;;;;;;;-144.30;68.78;84309.19;5134462;27;20222;-54
2023/05/31 07:16:39;;;;;;;7.30;6.30;;;;;;;-144.30;69.04;84674.88;5134429;27;20194;-54
2023/05/31 07:19:06;;;;;;;9.75;7.40;;;;;;;-144.30;68.53;84309.19;5134349;27;20190;-55
2023/05/31 07:21:33;;;;;;;8.48;6.65;;;;;;;-144.30;68.62;84311.19;5134291;27;20601;-58
2023/05/31 07:24:00;;;;;;;8.73;7.22;;;;;;;-144.30;69.06;84271.44;5134204;27;20250;-58
2023/05/31 07:26:27;;;;;;;7.72;6.97;;;;;;;-144.30;68.38;84209.84;5134512;27;20198;-58
2023/05/31 07:28:56;;;;;;;9.93;7.35;;;;;;;-144.30;68.00;84249.59;5134668;27;20561;-55
2023/05/31 07:31:24;;;;;;;11.73;7.45;;;;;;;-144.30;68.62;84207.84;5134246;27;20197;-55
2023/05/31 07:33:50;;;;;;;9.13;8.13;;;;;;;-144.30;67.72;84249.59;5134101;27;20702;-55
2023/05/31 07:36:17;;;;;;;7.22;6.28;;;;;;;-144.30;68.12;84199.91;5134077;27;20590;-55
2023/05/31 07:38:44;;;;;;;10.00;7.10;;;;;;;-144.30;68.36;84176.06;5133832;27;20193;-55
2023/05/31 07:41:11;;;;;;;12.05;7.85;;;;;;;-144.30;67.18;84090.59;5134033;27;20262;-55
2023/05/31 07:43:40;;;;;;;11.63;8.45;;;;;;;-144.30;62.78;84068.75;5133291;27;20186;-55
2023/05/31 07:46:08;;;;;;;13.63;9.15;;;;;;;-144.30;62.44;84044.91;5133901;27;20638;-55
2023/05/31 07:48:35;;;;;;;13.98;10.98;;;;;;;-144.30;61.61;84001.19;5133696;27;20200;-56
2023/05/31 07:51:02;;;;;;;8.43;7.60;;;;;;;-144.30;60.06;83939.59;5133639;27;20671;-55
2023/05/31 07:53:29;;;;;;;12.98;10.02;;;;;;;-144.30;58.79;83846.19;5133965;27;20228;-54
2023/05/31 07:55:56;;;;;;;9.93;8.77;;;;;;;-144.30;57.29;83703.13;5133933;27;20200;-55
2023/05/31 07:58:24;;;;;;;20.02;12.95;;;;;;;-144.30;55.91;83703.13;5133582;27;20203;-55
2023/05/31 08:00:52;;;;;;;11.45;8.10;;;;;;;-144.30;55.28;83734.91;5133606;27;20219;-55
2023/05/31 08:03:21;;;;;;;12.80;9.77;;;;;;;-144.30;56.45;83826.31;5133624;27;20200;-55
2023/05/31 08:05:49;;;;;;;7.75;7.05;;;;;;;-144.30;56.97;83872.03;5133307;27;20290;-55
2023/05/31 08:08:16;;;;;;;8.40;7.18;;;;;;;-144.30;57.21;83844.19;5133746;27;20207;-59
2023/05/31 08:10:43;;;;;;;13.70;9.73;;;;;;;-144.30;56.41;83778.63;5133416;27;20582;-59
2023/05/31 08:13:11;;;;;;;11.50;7.43;;;;;;;-144.30;55.96;83738.88;5133243;27;20738;-59
2023/05/31 08:15:38;;;;;;;8.68;7.57;;;;;;;-144.30;55.30;83603.78;5133089;27;20211;-59
2023/05/31 08:18:05;;;;;;;7.30;5.90;;;;;;;-144.30;53.89;83568.00;5133136;27;20711;-59
2023/05/31 08:20:35;;;;;;;8.63;6.55;;;;;;;-144.30;52.85;83432.91;5133458;27;20264;-60
2023/05/31 08:23:02;;;;;;;7.40;6.70;;;;;;;-144.30;51.56;83369.34;5133099;27;20190;-55
2023/05/31 08:25:29;;;;;;;8.18;7.43;;;;;;;-144.30;50.70;83186.56;5133491;27;20193;-55
2023/05/31 08:27:55;;;;;;;15.00;11.13;;;;;;;-144.30;49.69;83170.66;5133071;27;20202;-60
2023/05/31 08:30:22;;;;;;;6.10;5.70;;;;;;;-144.30;48.81;83210.38;5122511;27;20233;-60
2023/05/31 08:32:49;;;;;;;7.18;6.22;;;;;;;-144.30;48.81;83130.94;5113645;27;20699;-60
2023/05/31 08:35:16;;;;;;;6.90;6.30;;;;;;;-144.30;48.70;83097.16;5133064;27;20223;-60
2023/05/31 08:37:45;;;;;;;9.70;5.47;;;;;;;-144.30;48.88;83210.38;5132983;27;20299;-60
2023/05/31 08:40:13;;;;;;;11.98;7.15;;;;;;;-144.30;49.56;83154.75;5132719;27;20212;-60
2023/05/31 08:42:44;;;;;;;12.60;6.60;;;;;;;-144.30;48.71;83234.22;5132236;27;20215;-60
2023/05/31 08:45:11;;;;;;;8.48;5.93;;;;;;;-144.30;48.58;83208.41;5132058;27;20214;-60
2023/05/31 08:47:43;;;;;;;6.10;5.55;;;;;;;-144.30;47.99;83232.25;5130631;27;20249;-60
2023/05/31 08:50:11;;;;;;;7.63;6.13;;;;;;;-144.30;48.82;83220.31;5132377;27;20681;-60
2023/05/31 08:52:39;;;;;;;8.38;5.68;;;;;;;-144.30;48.50;83192.50;5113470;27;20215;-61
2023/05/31 08:55:08;;;;;;;8.27;6.25;;;;;;;-144.30;48.68;83230.25;5110958;28;20209;-59
2023/05/31 08:57:36;;;;;;;8.57;7.65;;;;;;;-144.30;48.98;83172.66;5111664;27;20209;-54
2023/05/31 09:00:08;;;;;;;8.57;6.95;;;;;;;-144.30;47.92;83023.66;5111928;28;20226;-60
2023/05/31 09:02:36;;;;;;;6.80;6.10;;;;;;;-144.30;47.22;83134.91;5111934;28;20696;-60
2023/05/31 09:05:03;;;;;;;7.00;6.30;;;;;;;-144.30;47.02;83176.63;5111887;28;20684;-61
2023/05/31 09:07:30;;;;;;;8.65;6.55;;;;;;;-144.30;47.58;83178.59;5111975;28;20622;-61
2023/05/31 09:09:57;;;;;;;6.55;5.95;;;;;;;-144.30;47.01;83164.69;5111615;28;20195;-55
2023/05/31 09:12:26;;;;;;;6.43;6.03;;;;;;;-144.30;46.70;83196.47;5111909;28;20205;-55
2023/05/31 09:14:53;;;;;;;6.70;5.80;;;;;;;-144.30;46.55;83182.56;5111537;28;20222;-55
2023/05/31 09:17:21;;;;;;;9.02;6.35;;;;;;;-144.30;46.64;83305.75;5111569;28;20680;-55
2023/05/31 09:19:52;;;;;;;5.85;5.28;;;;;;;-144.30;46.41;83194.50;5111302;28;20198;-55
2023/05/31 09:22:19;;;;;;;6.35;5.53;;;;;;;-144.30;46.58;83174.63;5120371;27;20194;-55
2023/05/31 09:24:56;;;;;;;9.43;5.63;;;;;;;-144.30;46.58;83134.91;5131786;27;20202;-55
2023/05/31 09:27:23;;;;;;;8.43;6.30;;;;;;;-144.30;45.32;83091.19;5132173;27;20197;-54
2023/05/31 09:29:55;;;;;;;6.80;6.07;;;;;;;-144.30;45.39;83067.34;5131884;27;20705;-55
2023/05/31 09:32:22;;;;;;;7.32;6.28;;;;;;;-144.30;46.35;83170.66;5131816;27;20194;-55
2023/05/31 09:34:49;;;;;;;9.68;6.78;;;;;;;-144.30;46.82;83500.47;5131577;27;20214;-56
2023/05/31 09:37:25;;;;;;;7.50;6.38;;;;;;;-144.30;46.36;83154.75;5131660;27;20194;-56
2023/05/31 09:39:56;;;;;;;7.18;6.50;;;;;;;-144.30;45.93;83087.22;5131956;27;20733;-55
2023/05/31 09:42:25;;;;;;;9.85;6.20;;;;;;;-144.30;45.65;83051.47;5131384;27;20193;-61
2023/05/31 09:44:52;;;;;;;11.52;7.40;;;;;;;-144.30;44.71;83047.50;5131719;27;20198;-59
2023/05/31 09:47:26;;;;;;;11.38;6.38;;;;;;;-144.30;44.08;83047.50;5131381;27;20228;-59
2023/05/31 09:49:54;;;;;;;8.48;7.07;;;;;;;-144.30;44.23;83049.47;5131367;27;20667;-54
2023/05/31 09:52:27;;;;;;;7.20;6.60;;;;;;;-144.30;44.87;83077.28;5131825;27;20278;-54
2023/05/31 09:54:56;;;;;;;12.38;6.85;;;;;;;-144.30;45.08;83005.78;5131516;27;20218;-55
2023/05/31 09:57:30;;;;;;;11.35;6.57;;;;;;;-144.30;44.76;82999.81;5131642;27;20186;-60
2023/05/31 09:59:58;;;;;;;9.63;6.50;;;;;;;-144.30;45.08;83007.75;5131316;27;20198;-60
2023/05/31 10:02:27;;;;;;;8.30;6.85;;;;;;;-144.30;44.69;82962.06;5131230;27;20568;-55
2023/05/31 10:04:56;;;;;;;6.95;6.45;;;;;;;-144.30;44.55;83059.41;5126714;27;20201;-55
2023/05/31 10:07:23;;;;;;;8.25;6.45;;;;;;;-144.30;45.51;83142.84;5119271;27;20210;-55
2023/05/31 10:09:50;;;;;;;12.45;7.45;;;;;;;-144.30;45.64;83154.75;5110602;28;20201;-55
2023/05/31 10:12:19;;;;;;;7.25;6.65;;;;;;;-144.30;46.16;83212.38;5110713;28;20205;-55
2023/05/31 10:14:54;;;;;;;6.82;6.18;;;;;;;-144.30;45.92;83293.84;5110897;28;20219;-60
2023/05/31 10:17:24;;;;;;;6.95;6.30;;;;;;;-144.30;45.17;83333.56;5110566;28;20202;-60
2023/05/31 10:19:59;;;;;;;8.30;6.25;;;;;;;-144.30;45.17;83452.78;5110424;28;20212;-55
2023/05/31 10:22:30;;;;;;;6.85;6.28;;;;;;;-144.30;45.13;83536.22;5110758;28;20668;-55
2023/05/31 10:25:03;;;;;;;7.53;6.43;;;;;;;-144.30;45.28;83530.25;5110569;28;20190;-55
2023/05/31 10:27:37;;;;;;;20.27;7.05;;;;;;;-144.30;45.96;83524.31;5110449;28;20616;-60
2023/05/31 10:30:05;;;;;;;7.35;6.75;;;;;;;-144.30;46.16;83544.16;5110694;28;20594;-60
2023/05/31 10:32:35;;;;;;;7.93;7.20;;;;;;;-144.30;46.56;83542.19;5110377;28;20199;-61
2023/05/31 10:35:05;;;;;;;8.77;6.35;;;;;;;-144.30;46.14;83568.00;5110329;28;20233;-60
2023/05/31 10:37:32;;;;;;;7.40;6.80;;;;;;;-144.30;45.78;83568.00;5110378;28;20662;-60
2023/05/31 10:40:05;;;;;;;7.63;6.88;;;;;;;-144.30;45.96;83651.47;5111117;28;20199;-60
2023/05/31 10:42:40;;;;;;;8.45;7.57;;;;;;;-144.30;45.91;83651.47;5110552;28;20242;-55
2023/05/31 10:45:15;;;;;;;7.68;6.97;;;;;;;-144.30;45.97;83625.63;5110410;28;20218;-55
2023/05/31 10:47:47;;;;;;;12.50;7.45;;;;;;;-144.30;46.68;83726.97;5110049;28;20226;-55
2023/05/31 10:50:20;;;;;;;11.38;7.43;;;;;;;-144.30;47.94;83713.06;5110044;28;20586;-55
2023/05/31 10:52:50;;;;;;;7.85;7.05;;;;;;;-144.30;47.96;83661.41;5123063;28;20212;-55
2023/05/31 10:55:18;;;;;;;8.15;7.28;;;;;;;-144.30;48.60;83679.28;5130708;27;20633;-55
2023/05/31 10:57:50;;;;;;;13.80;7.75;;;;;;;-144.30;48.97;83707.09;5130819;28;20586;-60
2023/05/31 11:00:20;;;;;;;7.22;6.63;;;;;;;-144.30;47.71;83734.91;5130540;27;20205;-60
2023/05/31 11:02:49;;;;;;;11.35;7.68;;;;;;;-144.30;46.34;83715.03;5130588;27;20194;-60
2023/05/31 11:05:21;;;;;;;7.88;6.47;;;;;;;-144.30;45.41;83707.09;5130651;27;20288;-60
2023/05/31 11:07:49;;;;;;;8.90;6.97;;;;;;;-144.30;46.34;83746.84;5130359;28;20294;-55
2023/05/31 11:10:27;;;;;;;6.50;5.97;;;;;;;-144.30;44.80;83689.22;5130434;27;20194;-54
2023/05/31 11:12:57;;;;;;;7.60;6.97;;;;;;;-144.30;45.44;83685.25;5130521;28;20624;-55